createdAt,value
2023-04-22T00:04:21.656Z,5.65
2023-04-22T00:09:25.337Z,5.77
2023-04-22T00:14:27.784Z,5.65
2023-04-22T00:19:30.881Z,5.63
2023-04-22T00:24:33.513Z,5.78
2023-04-22T00:29:36.410Z,5.45
2023-04-22T00:34:38.968Z,5.63
2023-04-22T00:39:42.452Z,5.79
2023-04-22T00:44:48.628Z,5.70
2023-04-22T00:49:51.702Z,5.50
2023-04-22T00:54:54.133Z,5.51
2023-04-22T00:59:57.006Z,5.67
2023-04-22T01:10:22.063Z,5.41
2023-04-22T01:15:24.974Z,5.47
2023-04-22T01:20:31.042Z,5.46
2023-04-22T01:25:33.930Z,5.75
2023-04-22T01:30:36.833Z,5.88
2023-04-22T01:35:40.256Z,5.85
2023-04-22T01:40:42.890Z,5.98
2023-04-22T01:45:45.681Z,5.98
2023-04-22T01:50:47.963Z,5.61
2023-04-22T01:55:50.587Z,5.54
2023-04-22T02:00:53.173Z,5.29
2023-04-22T02:05:55.817Z,5.55
2023-04-22T02:11:00.736Z,5.64
2023-04-22T02:16:03.581Z,5.50
2023-04-22T02:21:06.375Z,5.43
2023-04-22T02:26:08.776Z,5.54
2023-04-22T02:31:11.480Z,5.67
2023-04-22T02:36:16.352Z,5.11
2023-04-22T02:41:18.711Z,5.33
2023-04-22T02:46:21.530Z,5.24
2023-04-22T02:51:24.336Z,5.29
2023-04-22T02:56:27.635Z,5.29
2023-04-22T03:01:30.114Z,4.90
2023-04-22T03:06:36.502Z,5.22
2023-04-22T03:11:39.239Z,5.09
2023-04-22T03:16:42.408Z,5.34
2023-04-22T03:21:45.125Z,5.08
2023-04-22T03:26:47.924Z,4.83
2023-04-22T03:31:50.878Z,4.99
2023-04-22T03:36:54.064Z,5.03
2023-04-22T03:41:57.433Z,5.34
2023-04-22T03:47:01.043Z,5.34
2023-04-22T03:52:09.798Z,5.53
2023-04-22T03:57:18.429Z,5.12
2023-04-22T04:02:22.310Z,5.45
2023-04-22T04:07:25.466Z,5.76
2023-04-22T04:12:28.195Z,5.75
2023-04-22T04:17:31.644Z,6.20
2023-04-22T04:22:37.840Z,6.29
2023-04-22T04:27:42.047Z,6.49
2023-04-22T04:32:48.449Z,6.42
2023-04-22T04:37:54.052Z,6.40
2023-04-22T04:42:57.768Z,6.57
2023-04-22T04:48:08.344Z,6.82
2023-04-22T04:53:15.090Z,7.37
2023-04-22T04:58:19.585Z,7.33
2023-04-22T05:03:27.198Z,7.20
2023-04-22T05:08:30.673Z,7.25
2023-04-22T05:13:40.670Z,7.72
2023-04-22T05:18:46.706Z,8.25
2023-04-22T05:23:54.483Z,8.71
2023-04-22T05:28:57.273Z,9.25
2023-04-22T05:33:59.841Z,9.99
2023-04-22T05:39:03.232Z,10.49
2023-04-22T05:44:08.381Z,10.91
2023-04-22T05:49:10.863Z,10.71
2023-04-22T05:54:32.275Z,10.97
2023-04-22T05:59:35.093Z,11.17
2023-04-22T06:04:38.396Z,11.34
2023-04-22T06:09:42.354Z,11.28
2023-04-22T06:14:44.778Z,11.42
2023-04-22T06:19:47.869Z,11.47
2023-04-22T06:24:50.599Z,11.89
2023-04-22T06:29:53.302Z,12.23
2023-04-22T06:34:56.519Z,12.07
2023-04-22T06:39:59.759Z,11.89
2023-04-22T06:45:26.075Z,12.19
2023-04-22T06:50:50.462Z,12.55
2023-04-22T06:55:54.809Z,12.81
2023-04-22T07:00:57.438Z,12.93
2023-04-22T07:06:00.232Z,12.63
2023-04-22T07:11:02.998Z,13.17
2023-04-22T07:16:26.999Z,13.20
2023-04-22T07:21:29.810Z,13.48
2023-04-22T07:26:34.582Z,13.73
2023-04-22T07:31:37.555Z,13.64
2023-04-22T07:36:40.706Z,13.37
2023-04-22T07:41:42.916Z,13.17
2023-04-22T07:46:45.614Z,13.13
2023-04-22T07:51:48.357Z,12.92
2023-04-22T07:56:51.269Z,13.22
2023-04-22T08:01:53.940Z,13.44
2023-04-22T08:06:57.672Z,13.52
2023-04-22T08:12:01.468Z,13.53
2023-04-22T08:17:03.657Z,13.79
2023-04-22T08:22:07.273Z,13.98
2023-04-22T08:27:10.010Z,14.20
2023-04-22T08:32:12.696Z,14.39
2023-04-22T08:37:15.386Z,14.47
2023-04-22T08:42:18.287Z,14.88
2023-04-22T08:47:22.508Z,14.84
2023-04-22T08:52:30.283Z,15.08
2023-04-22T08:57:33.495Z,15.04
2023-04-22T09:02:38.942Z,15.08
2023-04-22T09:07:42.340Z,15.64
2023-04-22T09:12:45.180Z,16.14
2023-04-22T09:17:47.869Z,16.42
2023-04-22T09:22:51.068Z,16.48
2023-04-22T09:27:56.172Z,16.75
2023-04-22T09:33:04.658Z,16.74
2023-04-22T09:38:10.100Z,16.68
2023-04-22T09:43:13.226Z,16.33
2023-04-22T09:48:19.886Z,16.70
2023-04-22T09:53:23.222Z,16.72
2023-04-22T09:58:28.002Z,16.63
2023-04-22T10:03:31.083Z,16.70
2023-04-22T10:08:34.499Z,16.43
2023-04-22T10:13:37.316Z,16.54
2023-04-22T10:18:41.564Z,16.38
2023-04-22T10:23:48.705Z,16.54
2023-04-22T10:28:51.388Z,16.98
2023-04-22T10:34:11.689Z,17.70
2023-04-22T10:39:17.905Z,18.09
2023-04-22T10:44:22.884Z,18.48
2023-04-22T10:49:27.099Z,18.74
2023-04-22T10:54:37.236Z,19.33
2023-04-22T10:59:50.426Z,17.26
2023-04-22T11:05:25.816Z,17.77
2023-04-22T11:10:44.614Z,17.60
2023-04-22T11:15:49.894Z,17.96
2023-04-22T11:20:54.051Z,18.21
2023-04-22T11:25:59.564Z,17.83
2023-04-22T11:31:07.095Z,17.20
2023-04-22T11:36:12.915Z,17.12
2023-04-22T11:41:21.765Z,17.45
2023-04-22T11:46:32.281Z,17.54
2023-04-22T11:51:35.075Z,17.69
2023-04-22T11:56:40.420Z,18.18
2023-04-22T12:01:43.327Z,18.30
2023-04-22T12:06:47.593Z,18.09
2023-04-22T12:11:52.069Z,18.41
2023-04-22T12:16:54.434Z,18.22
2023-04-22T12:21:57.562Z,19.16
2023-04-22T12:27:00.145Z,19.26
2023-04-22T12:32:02.829Z,19.32
2023-04-22T12:37:04.952Z,19.63
2023-04-22T12:42:11.638Z,18.50
2023-04-22T12:47:18.422Z,17.53
2023-04-22T12:52:21.477Z,16.04
2023-04-22T12:57:24.155Z,16.12
2023-04-22T13:02:26.997Z,15.66
2023-04-22T13:07:29.838Z,15.49
2023-04-22T13:12:32.501Z,15.24
2023-04-22T13:17:35.835Z,14.92
2023-04-22T13:22:40.596Z,15.14
2023-04-22T13:27:43.449Z,15.20
2023-04-22T13:32:46.033Z,15.01
2023-04-22T13:37:48.864Z,15.28
2023-04-22T13:42:51.716Z,15.25
2023-04-22T13:47:54.448Z,15.23
2023-04-22T13:52:57.164Z,15.11
2023-04-22T13:58:01.352Z,15.24
2023-04-22T14:03:04.311Z,15.04
2023-04-22T14:08:07.179Z,15.38
2023-04-22T14:13:09.880Z,15.12
2023-04-22T14:18:13.103Z,15.12
2023-04-22T14:23:15.391Z,15.03
2023-04-22T14:28:17.938Z,15.18
2023-04-22T14:33:22.073Z,15.32
2023-04-22T14:38:25.007Z,15.35
2023-04-22T14:43:27.200Z,15.16
2023-04-22T14:48:31.503Z,15.09
2023-04-22T14:53:34.579Z,14.61
2023-04-22T14:58:40.138Z,14.52
2023-04-22T15:03:43.575Z,14.72
2023-04-22T15:08:48.457Z,14.44
2023-04-22T15:13:51.304Z,14.33
2023-04-22T15:18:55.502Z,14.32
2023-04-22T15:23:58.520Z,14.38
2023-04-22T15:29:01.536Z,14.70
2023-04-22T15:34:04.295Z,14.53
2023-04-22T15:39:07.164Z,14.57
2023-04-22T15:44:12.863Z,14.65
2023-04-22T15:49:15.868Z,14.58
2023-04-22T15:54:18.833Z,14.67
2023-04-22T15:59:23.715Z,14.62
2023-04-22T16:04:27.148Z,14.85
2023-04-22T16:09:31.867Z,14.91
2023-04-22T16:14:35.769Z,14.76
2023-04-22T16:19:38.885Z,14.61
2023-04-22T16:24:44.001Z,14.40
2023-04-22T16:29:47.484Z,14.65
2023-04-22T16:34:51.141Z,14.49
2023-04-22T16:39:56.896Z,14.38
2023-04-22T16:44:59.978Z,14.40
2023-04-22T16:50:02.732Z,14.12
2023-04-22T16:55:06.241Z,13.83
2023-04-22T17:00:10.158Z,13.90
2023-04-22T17:05:12.409Z,13.26
2023-04-22T17:10:15.528Z,13.58
2023-04-22T17:15:17.920Z,13.67
2023-04-22T17:20:20.821Z,13.33
2023-04-22T17:25:23.557Z,13.53
2023-04-22T17:30:26.368Z,13.51
2023-04-22T17:35:29.549Z,13.55
2023-04-22T17:40:31.816Z,13.31
2023-04-22T17:45:34.495Z,12.66
2023-04-22T17:50:37.148Z,11.62
2023-04-22T17:55:40.041Z,10.79
2023-04-22T18:00:42.895Z,10.23
2023-04-22T18:05:45.512Z,9.76
2023-04-22T18:10:48.176Z,9.27
2023-04-22T18:15:50.968Z,9.07
2023-04-22T18:20:53.961Z,8.75
2023-04-22T18:25:56.760Z,8.68
2023-04-22T18:30:59.430Z,8.65
2023-04-22T18:36:02.351Z,8.62
2023-04-22T18:41:05.337Z,8.27
2023-04-22T18:46:08.687Z,7.75
2023-04-22T18:51:11.659Z,7.80
2023-04-22T18:56:14.314Z,7.63
2023-04-22T19:01:17.208Z,7.48
2023-04-22T19:06:19.983Z,7.29
2023-04-22T19:11:23.297Z,7.50
2023-04-22T19:16:26.549Z,7.18
2023-04-22T19:21:30.699Z,7.09
2023-04-22T19:26:33.840Z,7.27
2023-04-22T19:31:36.128Z,7.06
2023-04-22T19:36:38.754Z,7.13
2023-04-22T19:41:41.407Z,6.99
2023-04-22T19:46:44.215Z,6.81
2023-04-22T19:51:46.736Z,6.89
2023-04-22T19:56:52.003Z,6.66
2023-04-22T20:01:55.043Z,6.49
2023-04-22T20:06:59.818Z,6.60
2023-04-22T20:12:05.290Z,6.45
2023-04-22T20:17:09.248Z,6.20
2023-04-22T20:22:14.765Z,6.33
2023-04-22T20:27:19.307Z,6.22
2023-04-22T20:32:24.355Z,5.77
2023-04-22T20:37:32.317Z,5.64
2023-04-22T20:42:37.083Z,5.54
2023-04-22T20:47:39.943Z,5.47
2023-04-22T20:52:43.620Z,5.60
2023-04-22T20:57:48.512Z,5.30
2023-04-22T21:02:51.981Z,5.47
2023-04-22T21:07:55.570Z,5.52
2023-04-22T21:13:06.572Z,5.33
2023-04-22T21:18:09.620Z,5.21
2023-04-22T21:23:19.257Z,5.14
2023-04-22T21:28:30.847Z,5.21
2023-04-22T21:33:35.956Z,5.25
2023-04-22T21:38:38.767Z,5.26
2023-04-22T21:43:41.700Z,4.81
2023-04-22T21:48:44.390Z,4.77
2023-04-22T21:53:47.194Z,4.74
2023-04-22T21:58:49.774Z,4.54
2023-04-22T22:03:53.388Z,4.20
2023-04-22T22:08:56.587Z,4.28
2023-04-22T22:13:59.969Z,4.34
2023-04-22T22:19:05.552Z,4.05
2023-04-22T22:24:09.667Z,4.32
2023-04-22T22:29:15.780Z,4.13
2023-04-22T22:34:18.398Z,3.85
2023-04-22T22:39:21.233Z,4.30
2023-04-22T22:44:24.011Z,3.96
2023-04-22T22:49:26.703Z,3.94
2023-04-22T22:54:29.416Z,4.22
2023-04-22T22:59:35.784Z,4.27
2023-04-22T23:04:39.634Z,3.89
2023-04-22T23:09:42.138Z,4.02
2023-04-22T23:14:45.269Z,3.95
2023-04-22T23:19:52.108Z,3.91
2023-04-22T23:24:55.464Z,3.52
2023-04-22T23:29:58.198Z,3.53
2023-04-22T23:35:02.108Z,3.22
2023-04-22T23:40:06.926Z,3.28
2023-04-22T23:45:10.510Z,3.57
2023-04-22T23:50:14.357Z,3.53
2023-04-22T23:55:17.228Z,3.57
